KREO/REO METAR and TAF weather

Enter ICAO airport designator
Station Type Date Time Source
KREO METAR 2019/10/23 20:52 UTC NOAA

KREO 232052Z AUTO VRB06KT 14/M08 A3036 RMK AO1 SLP274 T01441083 58009


Station Type Date Time Source
KREO Decoded METAR 2019/10/23 20:52 UTC NOAA

ROME, OR, United States (KREO) 42-35N 117-52W 1235M
Oct 23, 2019 - 04:52 PM EDT / 2019.10.23 2052 UTC
Wind: Variable at 7 MPH (6 KT):0
Temperature: 57.9 F (14.4 C)
Dew Point: 17.1 F (-8.3 C)
Relative Humidity: 19%
Pressure (altimeter): 30.36 in. Hg (1028 hPa)
Pressure tendency: 0.03 inches (0.9 hPa) lower than three hours ago
ob: KREO 232052Z AUTO VRB06KT 14/M08 A3036 RMK AO1 SLP274 T01441083 58009
cycle: 21

Station Type Date Time Source
KREO TAF UTC NOAA

Error!

Example: see airport list